createdAt,value
2023-04-15T00:00:07.348Z,99447.31
2023-04-15T00:02:43.605Z,99446.41
2023-04-15T00:05:12.655Z,99441.63
2023-04-15T00:07:41.484Z,99442.84
2023-04-15T00:10:10.747Z,99440.06
2023-04-15T00:12:41.187Z,99445.19
2023-04-15T00:15:12.656Z,99437.22
2023-04-15T00:17:43.458Z,99436.09
2023-04-15T00:20:12.863Z,99451.03
2023-04-15T00:22:41.753Z,99446.38
2023-04-15T00:25:11.653Z,99444.13
2023-04-15T00:27:40.733Z,99439.63
2023-04-15T00:30:10.593Z,99441.31
2023-04-15T00:32:39.518Z,99434.25
2023-04-15T00:35:11.027Z,99441.31
2023-04-15T00:37:39.803Z,99439.47
2023-04-15T00:40:13.925Z,99438.41
2023-04-15T00:42:43.539Z,99433.06
2023-04-15T00:45:13.048Z,99437.59
2023-04-15T00:47:43.568Z,99438.75
2023-04-15T00:50:14.261Z,99433.00
2023-04-15T00:52:42.991Z,99434.34
2023-04-15T00:55:12.337Z,99431.75
2023-04-15T00:57:41.693Z,99430.84
2023-04-15T01:00:12.002Z,99442.88
2023-04-15T01:02:41.193Z,99428.50
2023-04-15T01:05:10.456Z,99433.81
2023-04-15T01:07:40.471Z,99435.06
2023-04-15T01:10:09.654Z,99430.28
2023-04-15T01:12:39.697Z,99430.00
2023-04-15T01:15:11.200Z,99431.63
2023-04-15T01:17:40.810Z,99430.66
2023-04-15T01:20:12.317Z,99435.13
2023-04-15T01:22:42.706Z,99429.72
2023-04-15T01:25:14.687Z,99431.34
2023-04-15T01:27:45.484Z,99436.41
2023-04-15T01:30:15.755Z,99442.91
2023-04-15T01:32:44.775Z,99437.31
2023-04-15T01:35:13.892Z,99435.81
2023-04-15T01:37:42.506Z,99431.91
2023-04-15T01:40:11.813Z,99437.00
2023-04-15T01:42:41.185Z,99438.38
2023-04-15T01:45:13.414Z,99436.38
2023-04-15T01:47:42.737Z,99437.91
2023-04-15T01:50:12.539Z,99435.41
2023-04-15T01:52:41.227Z,99436.41
2023-04-15T01:55:10.933Z,99434.41
2023-04-15T01:57:40.788Z,99435.34
2023-04-15T02:00:12.476Z,99437.53
2023-04-15T02:02:44.924Z,99437.97
2023-04-15T02:05:14.082Z,99435.97
2023-04-15T02:07:43.765Z,99438.66
2023-04-15T02:10:13.798Z,99434.88
2023-04-15T02:12:42.766Z,99443.88
2023-04-15T02:15:13.335Z,99432.16
2023-04-15T02:17:45.998Z,99430.28
2023-04-15T02:20:17.392Z,99432.97
2023-04-15T02:22:45.964Z,99430.09
2023-04-15T02:25:17.275Z,99431.63
2023-04-15T02:27:46.252Z,99438.28
2023-04-15T02:30:16.724Z,99434.88
2023-04-15T02:32:45.841Z,99434.41
2023-04-15T02:35:14.756Z,99432.41
2023-04-15T02:37:45.983Z,99431.28
2023-04-15T02:40:15.716Z,99437.28
2023-04-15T02:42:45.715Z,99429.31
2023-04-15T02:45:23.732Z,99435.09
2023-04-15T02:47:52.745Z,99433.09
2023-04-15T02:50:23.737Z,99427.13
2023-04-15T02:52:52.945Z,99429.31
2023-04-15T02:55:22.715Z,99419.91
2023-04-15T02:57:52.286Z,99426.56
2023-04-15T03:00:22.680Z,99423.38
2023-04-15T03:02:56.574Z,99426.97
2023-04-15T03:05:25.969Z,99427.00
2023-04-15T03:07:54.804Z,99428.31
2023-04-15T03:10:23.946Z,99429.31
2023-04-15T03:12:52.804Z,99421.75
2023-04-15T03:15:25.399Z,99423.81
2023-04-15T03:17:55.319Z,99422.31
2023-04-15T03:20:24.489Z,99424.59
2023-04-15T03:22:53.200Z,99423.47
2023-04-15T03:25:23.997Z,99425.63
2023-04-15T03:27:53.049Z,99425.94
2023-04-15T03:30:22.208Z,99427.41
2023-04-15T03:32:52.892Z,99431.13
2023-04-15T03:35:22.576Z,99427.09
2023-04-15T03:37:51.300Z,99431.94
2023-04-15T03:40:20.405Z,99425.81
2023-04-15T03:42:49.346Z,99431.75
2023-04-15T03:45:18.676Z,99429.94
2023-04-15T03:47:47.829Z,99426.41
2023-04-15T03:50:18.253Z,99429.72
2023-04-15T03:52:46.885Z,99433.81
2023-04-15T03:55:15.884Z,99426.41
2023-04-15T03:57:44.837Z,99434.16
2023-04-15T04:00:14.054Z,99436.31
2023-04-15T04:02:43.625Z,99431.66
2023-04-15T04:05:12.657Z,99440.44
2023-04-15T04:07:42.576Z,99440.22
2023-04-15T04:10:11.378Z,99442.06
2023-04-15T04:12:40.293Z,99442.31
2023-04-15T04:15:10.313Z,99445.56
2023-04-15T04:17:39.292Z,99429.50
2023-04-15T04:20:09.536Z,99438.47
2023-04-15T04:22:40.187Z,99432.38
2023-04-15T04:25:11.431Z,99436.56
2023-04-15T04:27:40.508Z,99441.56
2023-04-15T04:30:10.346Z,99435.25
2023-04-15T04:32:39.372Z,99439.38
2023-04-15T04:35:09.253Z,99432.53
2023-04-15T04:37:37.771Z,99451.97
2023-04-15T04:40:08.250Z,99451.22
2023-04-15T04:42:40.038Z,99441.13
2023-04-15T04:45:10.320Z,99446.03
2023-04-15T04:47:39.327Z,99437.25
2023-04-15T04:50:09.580Z,99437.16
2023-04-15T04:52:38.146Z,99442.13
2023-04-15T04:55:08.753Z,99438.38
2023-04-15T04:57:39.711Z,99440.97
2023-04-15T05:00:09.752Z,99439.00
2023-04-15T05:02:38.946Z,99436.06
2023-04-15T05:05:08.982Z,99442.38
2023-04-15T05:07:37.480Z,99443.97
2023-04-15T05:10:07.657Z,99443.31
2023-04-15T05:12:38.871Z,99446.72
2023-04-15T05:15:09.011Z,99443.72
2023-04-15T05:17:37.856Z,99448.53
2023-04-15T05:20:07.787Z,99451.56
2023-04-15T05:22:36.363Z,99450.03
2023-04-15T05:25:05.891Z,99451.03
2023-04-15T05:27:34.921Z,99450.44
2023-04-15T05:30:05.807Z,99450.44
2023-04-15T05:32:34.670Z,99450.53
2023-04-15T05:35:03.780Z,99441.66
2023-04-15T05:37:32.356Z,99447.28
2023-04-15T05:40:03.938Z,99445.97
2023-04-15T05:42:32.863Z,99453.88
2023-04-15T05:45:01.830Z,99453.28
2023-04-15T05:47:32.405Z,99458.69
2023-04-15T05:50:01.273Z,99459.84
2023-04-15T05:52:29.724Z,99462.91
2023-04-15T05:54:58.695Z,99452.97
2023-04-15T05:57:27.494Z,99455.94
2023-04-15T05:59:57.457Z,99456.88
2023-04-15T06:02:26.781Z,99459.84
2023-04-15T06:04:57.786Z,99456.25
2023-04-15T06:07:26.866Z,99449.88
2023-04-15T06:09:55.904Z,99463.44
2023-04-15T06:12:24.791Z,99461.53
2023-04-15T06:14:53.662Z,99457.19
2023-04-15T06:17:22.565Z,99463.19
2023-04-15T06:19:55.550Z,99475.50
2023-04-15T06:22:26.194Z,99458.88
2023-04-15T06:24:55.080Z,99476.47
2023-04-15T06:27:24.301Z,99470.41
2023-04-15T06:29:53.237Z,99474.16
2023-04-15T06:32:22.173Z,99468.50
2023-04-15T06:34:50.762Z,99475.56
2023-04-15T06:37:19.668Z,99474.63
2023-04-15T06:39:49.943Z,99473.31
2023-04-15T06:42:18.679Z,99480.63
2023-04-15T06:44:47.525Z,99481.56
2023-04-15T06:47:16.474Z,99475.47
2023-04-15T06:49:45.385Z,99488.19
2023-04-15T06:52:14.809Z,99481.38
2023-04-15T06:54:43.806Z,99488.19
2023-04-15T06:57:16.394Z,99495.50
2023-04-15T06:59:45.554Z,99483.81
2023-04-15T07:02:15.025Z,99489.50
2023-04-15T07:04:43.539Z,99497.50
2023-04-15T07:07:12.468Z,99494.38
2023-04-15T07:09:41.747Z,99497.09
2023-04-15T07:12:10.579Z,99498.09
2023-04-15T07:14:40.880Z,99496.69
2023-04-15T07:17:10.781Z,99504.34
2023-04-15T07:19:40.711Z,99510.63
2023-04-15T07:22:09.753Z,99511.06
2023-04-15T07:24:38.621Z,99506.72
2023-04-15T07:27:07.606Z,99503.16
2023-04-15T07:29:37.607Z,99507.78
2023-04-15T07:32:08.115Z,99506.50
2023-04-15T07:34:36.663Z,99509.31
2023-04-15T07:37:05.467Z,99512.47
2023-04-15T07:39:34.323Z,99517.78
2023-04-15T07:42:04.006Z,99504.63
2023-04-15T07:44:32.982Z,99507.72
2023-04-15T07:47:02.193Z,99506.28
2023-04-15T07:49:32.232Z,99503.75
2023-04-15T07:52:01.378Z,99501.19
2023-04-15T07:54:30.356Z,99493.03
2023-04-15T07:56:59.345Z,99502.84
2023-04-15T07:59:30.203Z,99502.69
2023-04-15T08:01:59.613Z,99499.28
2023-04-15T08:04:28.697Z,99498.66
2023-04-15T08:06:59.349Z,99499.19
2023-04-15T08:09:28.344Z,99505.78
2023-04-15T08:11:57.786Z,99501.88
2023-04-15T08:14:27.167Z,99509.16
2023-04-15T08:16:55.678Z,99500.22
2023-04-15T08:19:24.584Z,99503.53
2023-04-15T08:21:53.423Z,99502.41
2023-04-15T08:24:24.096Z,99500.47
2023-04-15T08:26:52.981Z,99499.09
2023-04-15T08:29:21.914Z,99507.53
2023-04-15T08:31:50.631Z,99506.63
2023-04-15T08:34:19.566Z,99507.34
2023-04-15T08:36:48.537Z,99510.22
2023-04-15T08:39:17.409Z,99505.34
2023-04-15T08:41:49.665Z,99509.25
2023-04-15T08:44:20.338Z,99507.41
2023-04-15T08:46:49.848Z,99509.59
2023-04-15T08:49:19.486Z,99507.22
2023-04-15T08:51:48.838Z,99508.09
2023-04-15T08:54:17.877Z,99509.84
2023-04-15T08:56:48.993Z,99512.38
2023-04-15T08:59:18.181Z,99511.31
2023-04-15T09:01:47.128Z,99511.47
2023-04-15T09:04:16.271Z,99516.41
2023-04-15T09:06:45.839Z,99506.81
2023-04-15T09:09:15.496Z,99509.13
2023-04-15T09:11:44.597Z,99505.75
2023-04-15T09:14:14.900Z,99502.50
2023-04-15T09:16:58.150Z,99503.19
2023-04-15T09:19:27.258Z,99508.25
2023-04-15T09:21:58.831Z,99508.88
2023-04-15T09:24:37.529Z,99512.16
2023-04-15T09:27:06.534Z,99511.66
2023-04-15T09:29:37.323Z,99514.50
2023-04-15T09:32:13.437Z,99513.03
2023-04-15T09:34:41.984Z,99525.16
2023-04-15T09:37:20.719Z,99512.81
2023-04-15T09:40:00.349Z,99519.31
2023-04-15T09:42:29.330Z,99515.59
2023-04-15T09:45:09.931Z,99524.84
2023-04-15T09:47:38.534Z,99516.97
2023-04-15T09:50:08.272Z,99527.81
2023-04-15T09:52:43.215Z,99520.56
2023-04-15T09:55:12.664Z,99527.00
2023-04-15T09:57:42.520Z,99525.56
2023-04-15T10:00:14.132Z,99533.81
2023-04-15T10:02:44.281Z,99537.66
2023-04-15T10:05:16.403Z,99535.59
2023-04-15T10:07:45.952Z,99532.84
2023-04-15T10:10:15.007Z,99524.38
2023-04-15T10:12:43.926Z,99525.63
2023-04-15T10:15:17.666Z,99533.00
2023-04-15T10:17:46.886Z,99529.00
2023-04-15T10:20:16.631Z,99520.44
2023-04-15T10:22:46.775Z,99532.53
2023-04-15T10:25:15.741Z,99532.97
2023-04-15T10:27:44.946Z,99525.53
2023-04-15T10:30:15.679Z,99526.16
2023-04-15T10:32:44.926Z,99525.66
2023-04-15T10:35:14.995Z,99531.47
2023-04-15T10:37:43.535Z,99533.75
2023-04-15T10:40:31.631Z,99526.16
2023-04-15T10:43:01.603Z,99530.78
2023-04-15T10:45:35.581Z,99526.16
2023-04-15T10:48:05.538Z,99530.13
2023-04-15T10:50:35.611Z,99532.66
2023-04-15T10:53:05.421Z,99530.22
2023-04-15T10:55:35.263Z,99539.97
2023-04-15T10:58:04.519Z,99531.22
2023-04-15T11:00:35.752Z,99543.31
2023-04-15T11:03:08.469Z,99546.03
2023-04-15T11:05:53.834Z,99538.56
2023-04-15T11:08:55.153Z,99537.06
2023-04-15T11:11:23.788Z,99534.63
2023-04-15T11:13:54.314Z,99540.16
2023-04-15T11:16:24.674Z,99539.56
2023-04-15T11:18:56.593Z,99544.28
2023-04-15T11:21:28.278Z,99546.00
2023-04-15T11:23:57.253Z,99553.50
2023-04-15T11:26:27.888Z,99552.16
2023-04-15T11:28:56.369Z,99560.34
2023-04-15T11:31:29.493Z,99562.06
2023-04-15T11:34:00.286Z,99564.47
2023-04-15T11:36:30.308Z,99560.81
2023-04-15T11:39:00.148Z,99561.81
2023-04-15T11:41:29.104Z,99558.50
2023-04-15T11:43:57.988Z,99562.66
2023-04-15T11:46:32.712Z,99557.88
2023-04-15T11:49:01.701Z,99555.03
2023-04-15T11:51:34.406Z,99561.25
2023-04-15T11:54:04.069Z,99564.53
2023-04-15T11:56:33.314Z,99558.50
2023-04-15T11:59:02.360Z,99556.47
2023-04-15T12:01:36.513Z,99561.44
2023-04-15T12:04:13.058Z,99561.50
2023-04-15T12:06:42.243Z,99570.94
2023-04-15T12:09:14.568Z,99573.50
2023-04-15T12:11:45.958Z,99568.75
2023-04-15T12:14:22.618Z,99570.03
2023-04-15T12:16:55.135Z,99572.44
2023-04-15T12:19:28.787Z,99580.84
2023-04-15T12:22:01.502Z,99574.63
2023-04-15T12:24:33.176Z,99582.50
2023-04-15T12:27:04.190Z,99589.28
2023-04-15T12:29:34.333Z,99596.84
2023-04-15T12:32:08.857Z,99594.66
2023-04-15T12:34:38.311Z,99592.03
2023-04-15T12:37:09.628Z,99603.88
2023-04-15T12:39:40.060Z,99596.84
2023-04-15T12:42:09.113Z,99604.59
2023-04-15T12:44:38.383Z,99602.41
2023-04-15T12:47:10.795Z,99604.34
2023-04-15T12:49:39.996Z,99605.03
2023-04-15T12:52:08.974Z,99601.84
2023-04-15T12:54:37.863Z,99604.47
2023-04-15T12:57:07.673Z,99600.91
2023-04-15T12:59:37.657Z,99604.28
2023-04-15T13:02:06.723Z,99593.56
2023-04-15T13:04:36.934Z,99608.47
2023-04-15T13:07:05.915Z,99610.75
2023-04-15T13:09:34.859Z,99607.56
2023-04-15T13:12:04.776Z,99608.09
2023-04-15T13:14:33.596Z,99610.59
2023-04-15T13:17:04.253Z,99600.81
2023-04-15T13:19:32.845Z,99604.38
2023-04-15T13:22:03.228Z,99614.06
2023-04-15T13:24:32.177Z,99619.44
2023-04-15T13:27:01.108Z,99625.72
2023-04-15T13:29:30.074Z,99637.06
2023-04-15T13:31:59.056Z,99624.19
2023-04-15T13:34:27.802Z,99631.63
2023-04-15T13:36:56.851Z,99637.16
2023-04-15T13:39:27.377Z,99629.66
2023-04-15T13:41:57.628Z,99635.28
2023-04-15T13:44:26.554Z,99637.19
2023-04-15T13:46:55.077Z,99633.91
2023-04-15T13:49:23.911Z,99629.13
2023-04-15T13:51:52.853Z,99638.78
2023-04-15T13:54:21.909Z,99645.00
2023-04-15T13:56:52.171Z,99653.41
2023-04-15T13:59:20.879Z,99646.59
2023-04-15T14:01:49.673Z,99651.06
2023-04-15T14:04:18.838Z,99650.16
2023-04-15T14:06:47.944Z,99653.84
2023-04-15T14:09:17.094Z,99654.72
2023-04-15T14:11:46.083Z,99660.69
2023-04-15T14:14:16.555Z,99656.22
2023-04-15T14:16:45.169Z,99657.16
2023-04-15T14:19:14.051Z,99664.41
2023-04-15T14:21:43.183Z,99661.03
2023-04-15T14:24:12.453Z,99668.84
2023-04-15T14:26:41.373Z,99653.66
2023-04-15T14:29:10.568Z,99669.66
2023-04-15T14:31:40.990Z,99657.13
2023-04-15T14:34:11.778Z,99654.84
2023-04-15T14:36:41.851Z,99659.31
2023-04-15T14:39:10.831Z,99668.72
2023-04-15T14:41:41.143Z,99666.28
2023-04-15T14:44:11.635Z,99666.38
2023-04-15T14:46:42.103Z,99669.28
2023-04-15T14:49:11.128Z,99666.50
2023-04-15T14:51:41.713Z,99673.38
2023-04-15T14:54:10.900Z,99669.50
2023-04-15T14:56:39.804Z,99677.31
2023-04-15T14:59:08.964Z,99672.53
2023-04-15T15:01:37.543Z,99675.81
2023-04-15T15:04:08.717Z,99673.13
2023-04-15T15:06:37.936Z,99678.34
2023-04-15T15:09:07.053Z,99688.06
2023-04-15T15:11:36.153Z,99695.09
2023-04-15T15:14:05.003Z,99689.25
2023-04-15T15:16:33.562Z,99695.41
2023-04-15T15:19:02.641Z,99686.91
2023-04-15T15:21:33.280Z,99681.84
2023-04-15T15:24:03.589Z,99705.59
2023-04-15T15:26:32.511Z,99691.44
2023-04-15T15:29:01.412Z,99686.69
2023-04-15T15:31:29.965Z,99690.94
2023-04-15T15:33:59.131Z,99692.91
2023-04-15T15:36:28.433Z,99699.75
2023-04-15T15:38:59.829Z,99696.47
2023-04-15T15:41:28.876Z,99695.22
2023-04-15T15:43:57.894Z,99696.66
2023-04-15T15:46:28.188Z,99697.66
2023-04-15T15:48:57.298Z,99701.28
2023-04-15T15:51:27.689Z,99709.31
2023-04-15T15:53:56.363Z,99712.69
2023-04-15T15:56:27.097Z,99700.16
2023-04-15T15:58:55.266Z,99702.03
2023-04-15T16:01:24.293Z,99713.66
2023-04-15T16:03:53.703Z,99710.81
2023-04-15T16:06:22.829Z,99719.44
2023-04-15T16:08:53.332Z,99721.19
2023-04-15T16:11:22.232Z,99723.84
2023-04-15T16:13:52.664Z,99720.53
2023-04-15T16:16:22.157Z,99722.47
2023-04-15T16:18:51.217Z,99720.31
2023-04-15T16:21:20.804Z,99715.09
2023-04-15T16:23:49.755Z,99730.50
2023-04-15T16:26:18.729Z,99732.88
2023-04-15T16:28:47.418Z,99731.44
2023-04-15T16:31:17.840Z,99738.91
2023-04-15T16:33:46.778Z,99740.31
2023-04-15T16:36:15.672Z,99745.81
2023-04-15T16:38:48.447Z,99746.84
2023-04-15T16:41:18.704Z,99760.66
2023-04-15T16:43:47.411Z,99765.69
2023-04-15T16:46:17.795Z,99763.28
2023-04-15T16:48:46.928Z,99766.59
2023-04-15T16:51:15.819Z,99772.38
2023-04-15T16:53:44.857Z,99771.88
2023-04-15T16:56:14.062Z,99781.50
2023-04-15T16:58:42.692Z,99788.34
2023-04-15T17:01:12.171Z,99795.72
2023-04-15T17:03:42.566Z,99801.25
2023-04-15T17:06:11.667Z,99801.34
2023-04-15T17:08:40.667Z,99809.72
2023-04-15T17:11:09.685Z,99807.88
2023-04-15T17:13:38.268Z,99815.75
2023-04-15T17:16:07.687Z,99816.66
2023-04-15T17:18:37.068Z,99808.66
2023-04-15T17:21:08.197Z,99818.66
2023-04-15T17:23:37.557Z,99816.53
2023-04-15T17:26:06.547Z,99812.81
2023-04-15T17:28:35.091Z,99820.19
2023-04-15T17:31:05.207Z,99833.34
2023-04-15T17:34:00.341Z,99827.25
2023-04-15T17:36:25.150Z,99828.06
2023-04-15T17:38:56.231Z,99835.63
2023-04-15T17:41:25.509Z,99834.59
2023-04-15T17:43:54.018Z,99838.09
2023-04-15T17:46:23.016Z,99846.44
2023-04-15T17:48:52.341Z,99854.78
2023-04-15T17:51:21.881Z,99856.22
2023-04-15T17:53:53.295Z,99866.00
2023-04-15T17:56:22.183Z,99881.09
2023-04-15T17:58:50.775Z,99881.75
2023-04-15T18:01:19.797Z,99886.66
2023-04-15T18:03:49.767Z,99882.53
2023-04-15T18:06:23.384Z,99880.72
2023-04-15T18:09:00.257Z,99889.66
2023-04-15T18:11:36.824Z,99895.72
2023-04-15T18:14:26.970Z,99905.31
2023-04-15T18:17:15.678Z,99900.78
2023-04-15T18:20:05.855Z,99920.50
2023-04-15T18:22:40.447Z,99912.31
2023-04-15T18:25:11.427Z,99916.63
2023-04-15T18:27:40.608Z,99915.72
2023-04-15T18:30:10.847Z,99921.03
2023-04-15T18:32:40.244Z,99922.59
2023-04-15T18:35:10.113Z,99930.44
2023-04-15T18:37:38.742Z,99928.09
2023-04-15T18:40:11.102Z,99934.19
2023-04-15T18:42:40.185Z,99930.03
2023-04-15T18:45:10.245Z,99928.22
2023-04-15T18:47:39.250Z,99930.91
2023-04-15T18:50:09.579Z,99934.38
2023-04-15T18:52:38.261Z,99936.56
2023-04-15T18:55:08.227Z,99931.91
2023-04-15T18:57:42.682Z,99923.13
2023-04-15T19:00:16.145Z,99932.13
2023-04-15T19:02:45.628Z,99930.47
2023-04-15T19:05:14.733Z,99927.44
2023-04-15T19:07:43.412Z,99937.41
2023-04-15T19:10:12.657Z,99943.06
2023-04-15T19:12:44.253Z,99945.06
2023-04-15T19:15:13.471Z,99952.34
2023-04-15T19:17:42.655Z,99957.69
2023-04-15T19:20:12.218Z,99969.78
2023-04-15T19:22:41.772Z,99961.34
2023-04-15T19:25:11.362Z,99971.13
2023-04-15T19:27:40.440Z,99976.47
2023-04-15T19:30:11.318Z,99973.81
2023-04-15T19:32:40.506Z,99968.97
2023-04-15T19:35:11.578Z,99976.63
2023-04-15T19:37:40.631Z,99974.97
2023-04-15T19:40:10.764Z,99981.78
2023-04-15T19:42:39.820Z,99976.97
2023-04-15T19:45:11.274Z,99983.59
2023-04-15T19:47:40.518Z,99982.59
2023-04-15T19:50:11.358Z,99989.88
2023-04-15T19:52:39.676Z,100004.00
2023-04-15T19:55:08.989Z,99992.56
2023-04-15T19:57:38.028Z,99997.19
2023-04-15T20:00:08.464Z,100003.00
2023-04-15T20:02:38.549Z,100003.34
2023-04-15T20:05:09.966Z,99998.72
2023-04-15T20:07:42.449Z,99992.56
2023-04-15T20:10:13.298Z,99995.53
2023-04-15T20:12:49.545Z,100010.81
2023-04-15T20:15:23.716Z,100007.31
2023-04-15T20:17:54.572Z,100008.66
2023-04-15T20:20:25.043Z,100012.50
2023-04-15T20:22:54.009Z,100016.28
2023-04-15T20:25:22.972Z,100013.63
2023-04-15T20:27:52.194Z,100016.28
2023-04-15T20:30:21.183Z,100011.16
2023-04-15T20:32:50.256Z,100002.34
2023-04-15T20:35:21.055Z,100010.34
2023-04-15T20:37:50.444Z,100007.00
2023-04-15T20:40:19.384Z,100004.50
2023-04-15T20:42:48.371Z,100005.19
2023-04-15T20:45:17.462Z,100004.50
2023-04-15T20:47:46.734Z,99996.72
2023-04-15T20:50:15.854Z,100001.19
2023-04-15T20:52:45.800Z,100000.19
2023-04-15T20:55:14.440Z,100000.53
2023-04-15T20:57:43.494Z,100001.50
2023-04-15T21:00:13.298Z,100010.47
2023-04-15T21:02:42.277Z,100010.81
2023-04-15T21:05:11.530Z,100010.63
2023-04-15T21:07:41.079Z,100019.56
2023-04-15T21:10:12.140Z,100010.59
2023-04-15T21:12:41.325Z,100011.44
2023-04-15T21:15:11.255Z,100009.28
2023-04-15T21:17:41.717Z,100008.63
2023-04-15T21:20:11.841Z,100019.56
2023-04-15T21:22:40.431Z,100011.06
2023-04-15T21:25:11.345Z,100014.25
2023-04-15T21:27:40.268Z,100014.09
2023-04-15T21:30:09.995Z,100014.91
2023-04-15T21:32:39.004Z,100022.41
2023-04-15T21:35:08.954Z,100022.75
2023-04-15T21:37:38.047Z,100030.22
2023-04-15T21:40:08.225Z,100030.72
2023-04-15T21:42:38.542Z,100032.03
2023-04-15T21:45:08.421Z,100035.84
2023-04-15T21:47:56.833Z,100030.03
2023-04-15T21:50:26.198Z,100032.69
2023-04-15T21:52:54.714Z,100043.16
2023-04-15T21:55:23.995Z,100044.56
2023-04-15T21:57:54.367Z,100038.00
2023-04-15T22:00:23.740Z,100045.81
2023-04-15T22:02:53.306Z,100049.97
2023-04-15T22:05:22.774Z,100051.75
2023-04-15T22:07:51.829Z,100052.63
2023-04-15T22:10:21.477Z,100054.94
2023-04-15T22:12:50.361Z,100057.88
2023-04-15T22:15:20.717Z,100064.88
2023-04-15T22:17:49.571Z,100059.25
2023-04-15T22:20:18.588Z,100058.91
2023-04-15T22:22:47.132Z,100065.34
2023-04-15T22:25:16.169Z,100067.16
2023-04-15T22:27:45.181Z,100071.81
2023-04-15T22:30:14.635Z,100076.66
2023-04-15T22:32:45.087Z,100075.16
2023-04-15T22:35:13.706Z,100077.47
2023-04-15T22:37:42.187Z,100077.16
2023-04-15T22:40:12.198Z,100080.47
2023-04-15T22:42:41.122Z,100084.47
2023-04-15T22:45:10.979Z,100080.28
2023-04-15T22:47:39.928Z,100080.69
2023-04-15T22:50:11.089Z,100087.59
2023-04-15T22:52:40.110Z,100090.03
2023-04-15T22:55:10.264Z,100094.63
2023-04-15T22:57:39.273Z,100093.91
2023-04-15T23:00:09.394Z,100094.63
2023-04-15T23:02:38.383Z,100090.47
2023-04-15T23:05:12.563Z,100090.28
2023-04-15T23:07:44.377Z,100090.28
2023-04-15T23:10:13.336Z,100090.41
2023-04-15T23:12:42.259Z,100097.13
2023-04-15T23:15:11.907Z,100100.03
2023-04-15T23:17:41.081Z,100091.06
2023-04-15T23:20:11.422Z,100099.66
2023-04-15T23:22:42.017Z,100099.34
2023-04-15T23:25:12.478Z,100099.78
2023-04-15T23:27:41.804Z,100104.59
2023-04-15T23:30:11.094Z,100097.31
2023-04-15T23:32:40.218Z,100103.84
2023-04-15T23:35:09.912Z,100098.59
2023-04-15T23:37:38.502Z,100107.06
2023-04-15T23:40:08.816Z,100104.94
2023-04-15T23:42:38.884Z,100104.03
2023-04-15T23:45:09.158Z,100101.38
2023-04-15T23:47:38.182Z,100101.25
2023-04-15T23:50:08.486Z,100099.34
2023-04-15T23:52:37.271Z,100102.06
2023-04-15T23:55:06.823Z,100101.38
2023-04-15T23:57:36.378Z,100099.41
